sensor_id;sensor_type;location;lat;lon;timestamp;temperature;humidity
27384;DHT22;14851;51.166;4.760;2023-01-23T00:00:11;1.40;99.90
27384;DHT22;14851;51.166;4.760;2023-01-23T00:02:38;1.40;99.90
27384;DHT22;14851;51.166;4.760;2023-01-23T00:05:04;1.40;99.90
27384;DHT22;14851;51.166;4.760;2023-01-23T00:07:30;1.40;99.90
27384;DHT22;14851;51.166;4.760;2023-01-23T00:10:00;1.40;99.90
27384;DHT22;14851;51.166;4.760;2023-01-23T00:12:27;1.40;99.90
27384;DHT22;14851;51.166;4.760;2023-01-23T00:14:53;1.40;99.90
27384;DHT22;14851;51.166;4.760;2023-01-23T00:17:20;1.40;99.90
27384;DHT22;14851;51.166;4.760;2023-01-23T00:19:46;1.50;99.90
27384;DHT22;14851;51.166;4.760;2023-01-23T00:22:13;1.50;99.90
27384;DHT22;14851;51.166;4.760;2023-01-23T00:24:43;1.40;99.90
27384;DHT22;14851;51.166;4.760;2023-01-23T00:27:09;1.50;99.90
27384;DHT22;14851;51.166;4.760;2023-01-23T00:29:36;1.50;99.90
27384;DHT22;14851;51.166;4.760;2023-01-23T00:32:02;1.50;99.90
27384;DHT22;14851;51.166;4.760;2023-01-23T00:34:29;1.50;99.90
27384;DHT22;14851;51.166;4.760;2023-01-23T00:36:55;1.50;99.90
27384;DHT22;14851;51.166;4.760;2023-01-23T00:39:22;1.50;99.90
27384;DHT22;14851;51.166;4.760;2023-01-23T00:41:48;1.50;99.90
27384;DHT22;14851;51.166;4.760;2023-01-23T00:44:15;1.50;99.90
27384;DHT22;14851;51.166;4.760;2023-01-23T00:46:41;1.50;99.90
27384;DHT22;14851;51.166;4.760;2023-01-23T00:49:07;1.50;99.90
27384;DHT22;14851;51.166;4.760;2023-01-23T00:51:34;1.50;99.90
27384;DHT22;14851;51.166;4.760;2023-01-23T00:54:00;1.60;99.90
27384;DHT22;14851;51.166;4.760;2023-01-23T00:56:27;1.50;99.90
27384;DHT22;14851;51.166;4.760;2023-01-23T00:58:53;1.50;99.90
27384;DHT22;14851;51.166;4.760;2023-01-23T01:01:21;1.50;99.90
27384;DHT22;14851;51.166;4.760;2023-01-23T01:03:53;1.50;99.90
27384;DHT22;14851;51.166;4.760;2023-01-23T01:06:21;1.50;99.90
27384;DHT22;14851;51.166;4.760;2023-01-23T01:08:49;1.60;99.90
27384;DHT22;14851;51.166;4.760;2023-01-23T01:11:15;1.50;99.90
27384;DHT22;14851;51.166;4.760;2023-01-23T01:13:42;1.50;99.90
27384;DHT22;14851;51.166;4.760;2023-01-23T01:16:09;1.60;99.90
27384;DHT22;14851;51.166;4.760;2023-01-23T01:18:37;1.60;99.90
27384;DHT22;14851;51.166;4.760;2023-01-23T01:21:07;1.50;99.90
27384;DHT22;14851;51.166;4.760;2023-01-23T01:23:34;1.60;99.90
27384;DHT22;14851;51.166;4.760;2023-01-23T01:26:04;1.50;99.90
27384;DHT22;14851;51.166;4.760;2023-01-23T01:28:32;1.60;99.90
27384;DHT22;14851;51.166;4.760;2023-01-23T01:31:06;1.60;99.90
27384;DHT22;14851;51.166;4.760;2023-01-23T01:33:32;1.60;99.90
27384;DHT22;14851;51.166;4.760;2023-01-23T01:36:00;1.60;99.90
27384;DHT22;14851;51.166;4.760;2023-01-23T01:38:27;1.60;99.90
27384;DHT22;14851;51.166;4.760;2023-01-23T01:40:56;1.60;99.90
27384;DHT22;14851;51.166;4.760;2023-01-23T01:43:25;1.60;99.90
27384;DHT22;14851;51.166;4.760;2023-01-23T01:54:27;1.60;99.90
27384;DHT22;14851;51.166;4.760;2023-01-23T01:57:06;1.60;99.90
27384;DHT22;14851;51.166;4.760;2023-01-23T01:59:39;1.60;99.90
27384;DHT22;14851;51.166;4.760;2023-01-23T02:02:13;1.70;99.90
27384;DHT22;14851;51.166;4.760;2023-01-23T02:04:46;1.70;99.90
27384;DHT22;14851;51.166;4.760;2023-01-23T02:07:25;1.70;99.90
27384;DHT22;14851;51.166;4.760;2023-01-23T02:09:53;1.60;99.90
27384;DHT22;14851;51.166;4.760;2023-01-23T02:12:20;1.70;99.90
27384;DHT22;14851;51.166;4.760;2023-01-23T02:14:45;1.70;99.90
27384;DHT22;14851;51.166;4.760;2023-01-23T02:17:13;1.70;99.90
27384;DHT22;14851;51.166;4.760;2023-01-23T02:27:53;1.70;99.90
27384;DHT22;14851;51.166;4.760;2023-01-23T02:30:20;1.70;99.90
27384;DHT22;14851;51.166;4.760;2023-01-23T02:32:50;1.60;99.90
27384;DHT22;14851;51.166;4.760;2023-01-23T02:35:23;1.70;99.90
27384;DHT22;14851;51.166;4.760;2023-01-23T02:37:59;1.70;99.90
27384;DHT22;14851;51.166;4.760;2023-01-23T02:40:32;1.70;99.90
27384;DHT22;14851;51.166;4.760;2023-01-23T02:43:04;1.70;99.90
27384;DHT22;14851;51.166;4.760;2023-01-23T02:45:35;1.70;99.90
27384;DHT22;14851;51.166;4.760;2023-01-23T02:48:02;1.70;99.90
27384;DHT22;14851;51.166;4.760;2023-01-23T02:50:31;1.70;99.90
27384;DHT22;14851;51.166;4.760;2023-01-23T02:52:57;1.70;99.90
27384;DHT22;14851;51.166;4.760;2023-01-23T02:55:23;1.70;99.90
27384;DHT22;14851;51.166;4.760;2023-01-23T02:57:57;1.70;99.90
27384;DHT22;14851;51.166;4.760;2023-01-23T03:00:43;1.70;99.90
27384;DHT22;14851;51.166;4.760;2023-01-23T03:03:10;1.70;99.90
27384;DHT22;14851;51.166;4.760;2023-01-23T03:05:40;1.70;99.90
27384;DHT22;14851;51.166;4.760;2023-01-23T03:08:09;1.70;99.90
27384;DHT22;14851;51.166;4.760;2023-01-23T03:10:41;1.70;99.90
27384;DHT22;14851;51.166;4.760;2023-01-23T03:13:07;1.70;99.90
27384;DHT22;14851;51.166;4.760;2023-01-23T03:15:39;1.70;99.90
27384;DHT22;14851;51.166;4.760;2023-01-23T03:18:07;1.70;99.90
27384;DHT22;14851;51.166;4.760;2023-01-23T03:20:40;1.70;99.90
27384;DHT22;14851;51.166;4.760;2023-01-23T03:23:07;1.70;99.90
27384;DHT22;14851;51.166;4.760;2023-01-23T03:25:33;1.80;99.90
27384;DHT22;14851;51.166;4.760;2023-01-23T03:28:01;1.80;99.90
27384;DHT22;14851;51.166;4.760;2023-01-23T03:30:27;1.80;99.90
27384;DHT22;14851;51.166;4.760;2023-01-23T03:32:53;1.80;99.90
27384;DHT22;14851;51.166;4.760;2023-01-23T03:35:19;1.80;99.90
27384;DHT22;14851;51.166;4.760;2023-01-23T03:37:50;1.80;99.90
27384;DHT22;14851;51.166;4.760;2023-01-23T03:40:18;1.80;99.90
27384;DHT22;14851;51.166;4.760;2023-01-23T03:43:18;1.80;99.90
27384;DHT22;14851;51.166;4.760;2023-01-23T03:45:50;1.80;99.90
27384;DHT22;14851;51.166;4.760;2023-01-23T03:48:17;1.80;99.90
27384;DHT22;14851;51.166;4.760;2023-01-23T03:50:46;1.80;99.90
27384;DHT22;14851;51.166;4.760;2023-01-23T03:53:14;1.80;99.90
27384;DHT22;14851;51.166;4.760;2023-01-23T03:55:40;1.80;99.90
27384;DHT22;14851;51.166;4.760;2023-01-23T03:58:08;1.80;99.90
27384;DHT22;14851;51.166;4.760;2023-01-23T04:00:38;1.80;99.90
27384;DHT22;14851;51.166;4.760;2023-01-23T04:03:06;1.80;99.90
27384;DHT22;14851;51.166;4.760;2023-01-23T04:05:33;1.80;99.90
27384;DHT22;14851;51.166;4.760;2023-01-23T04:08:00;1.80;99.90
27384;DHT22;14851;51.166;4.760;2023-01-23T04:10:26;1.90;99.90
27384;DHT22;14851;51.166;4.760;2023-01-23T04:12:59;1.90;99.90
27384;DHT22;14851;51.166;4.760;2023-01-23T04:15:27;1.90;99.90
27384;DHT22;14851;51.166;4.760;2023-01-23T04:17:55;1.90;99.90
27384;DHT22;14851;51.166;4.760;2023-01-23T04:20:23;1.90;99.90
27384;DHT22;14851;51.166;4.760;2023-01-23T04:22:51;1.90;99.90
27384;DHT22;14851;51.166;4.760;2023-01-23T04:25:17;1.90;99.90
27384;DHT22;14851;51.166;4.760;2023-01-23T04:27:44;1.90;99.90
27384;DHT22;14851;51.166;4.760;2023-01-23T04:30:11;1.90;99.90
27384;DHT22;14851;51.166;4.760;2023-01-23T04:32:40;1.90;99.90
27384;DHT22;14851;51.166;4.760;2023-01-23T04:35:07;1.90;99.90
27384;DHT22;14851;51.166;4.760;2023-01-23T04:37:36;1.90;99.90
27384;DHT22;14851;51.166;4.760;2023-01-23T04:40:03;1.90;99.90
27384;DHT22;14851;51.166;4.760;2023-01-23T04:42:38;1.90;99.90
27384;DHT22;14851;51.166;4.760;2023-01-23T04:45:15;1.90;99.90
27384;DHT22;14851;51.166;4.760;2023-01-23T04:47:41;1.90;99.90
27384;DHT22;14851;51.166;4.760;2023-01-23T04:50:10;1.90;99.90
27384;DHT22;14851;51.166;4.760;2023-01-23T04:52:37;1.90;99.90
27384;DHT22;14851;51.166;4.760;2023-01-23T04:55:03;1.90;99.90
27384;DHT22;14851;51.166;4.760;2023-01-23T04:57:30;1.90;99.90
27384;DHT22;14851;51.166;4.760;2023-01-23T05:00:28;1.90;99.90
27384;DHT22;14851;51.166;4.760;2023-01-23T05:02:56;1.90;99.90
27384;DHT22;14851;51.166;4.760;2023-01-23T05:05:24;1.90;99.90
27384;DHT22;14851;51.166;4.760;2023-01-23T05:07:54;1.90;99.90
27384;DHT22;14851;51.166;4.760;2023-01-23T05:10:22;2.00;99.90
27384;DHT22;14851;51.166;4.760;2023-01-23T05:12:51;2.10;99.90
27384;DHT22;14851;51.166;4.760;2023-01-23T05:15:20;2.20;99.90
27384;DHT22;14851;51.166;4.760;2023-01-23T05:17:47;2.20;99.90
27384;DHT22;14851;51.166;4.760;2023-01-23T05:20:13;2.30;99.90
27384;DHT22;14851;51.166;4.760;2023-01-23T05:22:42;2.20;99.90
27384;DHT22;14851;51.166;4.760;2023-01-23T05:25:26;2.30;99.90
27384;DHT22;14851;51.166;4.760;2023-01-23T05:27:54;2.20;99.90
27384;DHT22;14851;51.166;4.760;2023-01-23T05:30:22;2.30;99.90
27384;DHT22;14851;51.166;4.760;2023-01-23T05:32:51;2.20;99.90
27384;DHT22;14851;51.166;4.760;2023-01-23T05:35:19;2.20;99.90
27384;DHT22;14851;51.166;4.760;2023-01-23T05:37:52;2.20;99.90
27384;DHT22;14851;51.166;4.760;2023-01-23T05:40:22;2.10;99.90
27384;DHT22;14851;51.166;4.760;2023-01-23T05:43:12;2.00;99.90
27384;DHT22;14851;51.166;4.760;2023-01-23T05:46:07;2.00;99.90
27384;DHT22;14851;51.166;4.760;2023-01-23T05:48:51;2.10;99.90
27384;DHT22;14851;51.166;4.760;2023-01-23T05:51:20;2.20;99.90
27384;DHT22;14851;51.166;4.760;2023-01-23T05:53:48;2.20;99.90
27384;DHT22;14851;51.166;4.760;2023-01-23T05:56:17;2.30;99.90
27384;DHT22;14851;51.166;4.760;2023-01-23T05:59:02;2.30;99.90
27384;DHT22;14851;51.166;4.760;2023-01-23T06:01:40;2.20;99.90
27384;DHT22;14851;51.166;4.760;2023-01-23T06:04:24;2.20;99.90
27384;DHT22;14851;51.166;4.760;2023-01-23T06:07:02;2.20;99.90
27384;DHT22;14851;51.166;4.760;2023-01-23T06:09:29;2.30;99.90
27384;DHT22;14851;51.166;4.760;2023-01-23T06:11:55;2.30;99.90
27384;DHT22;14851;51.166;4.760;2023-01-23T06:14:21;2.20;99.90
27384;DHT22;14851;51.166;4.760;2023-01-23T06:16:48;2.20;99.90
27384;DHT22;14851;51.166;4.760;2023-01-23T06:19:14;2.20;99.90
27384;DHT22;14851;51.166;4.760;2023-01-23T06:21:40;2.20;99.90
27384;DHT22;14851;51.166;4.760;2023-01-23T06:24:06;2.20;99.90
27384;DHT22;14851;51.166;4.760;2023-01-23T06:26:34;2.20;99.90
27384;DHT22;14851;51.166;4.760;2023-01-23T06:29:00;2.20;99.90
27384;DHT22;14851;51.166;4.760;2023-01-23T06:31:31;2.20;99.90
27384;DHT22;14851;51.166;4.760;2023-01-23T06:34:00;2.20;99.90
27384;DHT22;14851;51.166;4.760;2023-01-23T06:36:30;2.10;99.90
27384;DHT22;14851;51.166;4.760;2023-01-23T06:39:00;2.10;99.90
27384;DHT22;14851;51.166;4.760;2023-01-23T06:41:34;2.10;99.90
27384;DHT22;14851;51.166;4.760;2023-01-23T06:44:06;2.20;99.90
27384;DHT22;14851;51.166;4.760;2023-01-23T06:46:32;2.30;99.90
27384;DHT22;14851;51.166;4.760;2023-01-23T06:49:01;2.30;99.90
27384;DHT22;14851;51.166;4.760;2023-01-23T06:51:29;2.30;99.90
27384;DHT22;14851;51.166;4.760;2023-01-23T06:53:56;2.30;99.90
27384;DHT22;14851;51.166;4.760;2023-01-23T06:56:25;2.40;99.90
27384;DHT22;14851;51.166;4.760;2023-01-23T06:58:51;2.40;99.90
27384;DHT22;14851;51.166;4.760;2023-01-23T07:01:28;2.40;99.90
27384;DHT22;14851;51.166;4.760;2023-01-23T07:04:13;2.40;99.90
27384;DHT22;14851;51.166;4.760;2023-01-23T07:06:41;2.30;99.90
27384;DHT22;14851;51.166;4.760;2023-01-23T07:09:07;2.30;99.90
27384;DHT22;14851;51.166;4.760;2023-01-23T07:11:37;2.30;99.90
27384;DHT22;14851;51.166;4.760;2023-01-23T07:14:05;2.30;99.90
27384;DHT22;14851;51.166;4.760;2023-01-23T07:16:32;2.30;99.90
27384;DHT22;14851;51.166;4.760;2023-01-23T07:18:59;2.30;99.90
27384;DHT22;14851;51.166;4.760;2023-01-23T07:21:30;2.30;99.90
27384;DHT22;14851;51.166;4.760;2023-01-23T07:24:00;2.30;99.90
27384;DHT22;14851;51.166;4.760;2023-01-23T07:26:26;2.30;99.90
27384;DHT22;14851;51.166;4.760;2023-01-23T07:28:53;2.20;99.90
27384;DHT22;14851;51.166;4.760;2023-01-23T07:31:22;2.20;99.90
27384;DHT22;14851;51.166;4.760;2023-01-23T07:33:50;2.20;99.90
27384;DHT22;14851;51.166;4.760;2023-01-23T07:36:20;2.20;99.90
27384;DHT22;14851;51.166;4.760;2023-01-23T07:38:46;2.20;99.90
27384;DHT22;14851;51.166;4.760;2023-01-23T07:41:13;2.20;99.90
27384;DHT22;14851;51.166;4.760;2023-01-23T07:43:41;2.20;99.90
27384;DHT22;14851;51.166;4.760;2023-01-23T07:46:09;2.20;99.90
27384;DHT22;14851;51.166;4.760;2023-01-23T07:48:36;2.30;99.90
27384;DHT22;14851;51.166;4.760;2023-01-23T07:51:04;2.30;99.90
27384;DHT22;14851;51.166;4.760;2023-01-23T07:53:34;2.40;99.90
27384;DHT22;14851;51.166;4.760;2023-01-23T07:56:05;2.30;99.90
27384;DHT22;14851;51.166;4.760;2023-01-23T07:58:32;2.40;99.90
27384;DHT22;14851;51.166;4.760;2023-01-23T08:01:10;2.40;99.90
27384;DHT22;14851;51.166;4.760;2023-01-23T08:03:37;2.40;99.90
27384;DHT22;14851;51.166;4.760;2023-01-23T08:06:03;2.40;99.90
27384;DHT22;14851;51.166;4.760;2023-01-23T08:08:29;2.50;99.90
27384;DHT22;14851;51.166;4.760;2023-01-23T08:10:58;2.40;99.90
27384;DHT22;14851;51.166;4.760;2023-01-23T08:13:26;2.40;99.90
27384;DHT22;14851;51.166;4.760;2023-01-23T08:15:53;2.40;99.90
27384;DHT22;14851;51.166;4.760;2023-01-23T08:18:19;2.40;99.90
27384;DHT22;14851;51.166;4.760;2023-01-23T08:20:52;2.50;99.90
27384;DHT22;14851;51.166;4.760;2023-01-23T08:23:19;2.50;99.90
27384;DHT22;14851;51.166;4.760;2023-01-23T08:25:45;2.50;99.90
27384;DHT22;14851;51.166;4.760;2023-01-23T08:28:11;2.50;99.90
27384;DHT22;14851;51.166;4.760;2023-01-23T08:30:38;2.50;99.90
27384;DHT22;14851;51.166;4.760;2023-01-23T08:33:04;2.50;99.90
27384;DHT22;14851;51.166;4.760;2023-01-23T08:35:33;2.50;99.90
27384;DHT22;14851;51.166;4.760;2023-01-23T08:38:00;2.50;99.90
27384;DHT22;14851;51.166;4.760;2023-01-23T08:40:27;2.40;99.90
27384;DHT22;14851;51.166;4.760;2023-01-23T08:42:55;2.40;99.90
27384;DHT22;14851;51.166;4.760;2023-01-23T08:45:21;2.40;99.90
27384;DHT22;14851;51.166;4.760;2023-01-23T08:47:47;2.40;99.90
27384;DHT22;14851;51.166;4.760;2023-01-23T08:50:14;2.50;99.90
27384;DHT22;14851;51.166;4.760;2023-01-23T08:52:40;2.60;99.90
27384;DHT22;14851;51.166;4.760;2023-01-23T08:55:07;2.60;99.90
27384;DHT22;14851;51.166;4.760;2023-01-23T08:57:35;2.70;99.90
27384;DHT22;14851;51.166;4.760;2023-01-23T09:00:02;2.70;99.90
27384;DHT22;14851;51.166;4.760;2023-01-23T09:02:29;2.70;99.90
27384;DHT22;14851;51.166;4.760;2023-01-23T09:04:58;2.70;99.90
27384;DHT22;14851;51.166;4.760;2023-01-23T09:07:30;2.70;99.90
27384;DHT22;14851;51.166;4.760;2023-01-23T09:09:59;2.70;99.90
27384;DHT22;14851;51.166;4.760;2023-01-23T09:12:25;2.70;99.90
27384;DHT22;14851;51.166;4.760;2023-01-23T09:14:53;2.70;99.90
27384;DHT22;14851;51.166;4.760;2023-01-23T09:17:20;2.70;99.90
27384;DHT22;14851;51.166;4.760;2023-01-23T09:19:49;2.70;99.90
27384;DHT22;14851;51.166;4.760;2023-01-23T09:22:16;2.80;99.90
27384;DHT22;14851;51.166;4.760;2023-01-23T09:24:41;2.70;99.90
27384;DHT22;14851;51.166;4.760;2023-01-23T09:27:07;2.70;99.90
27384;DHT22;14851;51.166;4.760;2023-01-23T09:29:35;2.70;99.90
27384;DHT22;14851;51.166;4.760;2023-01-23T09:32:05;2.80;99.90
27384;DHT22;14851;51.166;4.760;2023-01-23T09:34:35;2.70;99.90
27384;DHT22;14851;51.166;4.760;2023-01-23T09:37:01;2.70;99.90
27384;DHT22;14851;51.166;4.760;2023-01-23T09:39:27;2.70;99.90
27384;DHT22;14851;51.166;4.760;2023-01-23T09:41:53;2.80;99.90
27384;DHT22;14851;51.166;4.760;2023-01-23T09:44:27;2.80;99.90
27384;DHT22;14851;51.166;4.760;2023-01-23T09:46:58;2.70;99.90
27384;DHT22;14851;51.166;4.760;2023-01-23T09:49:48;2.90;99.90
27384;DHT22;14851;51.166;4.760;2023-01-23T09:52:25;3.00;99.90
27384;DHT22;14851;51.166;4.760;2023-01-23T09:57:42;3.00;99.90
27384;DHT22;14851;51.166;4.760;2023-01-23T10:00:25;3.00;99.90
27384;DHT22;14851;51.166;4.760;2023-01-23T10:03:11;3.10;99.90
27384;DHT22;14851;51.166;4.760;2023-01-23T10:05:42;3.10;99.90
27384;DHT22;14851;51.166;4.760;2023-01-23T10:11:23;3.10;99.90
27384;DHT22;14851;51.166;4.760;2023-01-23T10:16:59;3.10;99.90
27384;DHT22;14851;51.166;4.760;2023-01-23T10:22:38;3.20;99.90
27384;DHT22;14851;51.166;4.760;2023-01-23T10:25:21;3.20;99.90
27384;DHT22;14851;51.166;4.760;2023-01-23T10:28:31;3.20;99.90
27384;DHT22;14851;51.166;4.760;2023-01-23T10:31:02;3.20;99.90
27384;DHT22;14851;51.166;4.760;2023-01-23T10:33:47;3.20;99.90
27384;DHT22;14851;51.166;4.760;2023-01-23T10:36:28;3.10;99.90
27384;DHT22;14851;51.166;4.760;2023-01-23T10:39:12;3.20;99.90
27384;DHT22;14851;51.166;4.760;2023-01-23T10:41:39;3.20;99.90
27384;DHT22;14851;51.166;4.760;2023-01-23T10:44:17;3.20;99.90
27384;DHT22;14851;51.166;4.760;2023-01-23T10:46:54;3.20;99.90
27384;DHT22;14851;51.166;4.760;2023-01-23T10:52:05;3.30;99.90
27384;DHT22;14851;51.166;4.760;2023-01-23T10:54:49;3.40;99.90
27384;DHT22;14851;51.166;4.760;2023-01-23T11:00:00;3.50;99.90
27384;DHT22;14851;51.166;4.760;2023-01-23T11:02:30;3.50;99.90
27384;DHT22;14851;51.166;4.760;2023-01-23T11:04:57;3.60;99.90
27384;DHT22;14851;51.166;4.760;2023-01-23T11:07:28;3.50;99.90
27384;DHT22;14851;51.166;4.760;2023-01-23T11:09:57;3.60;99.90
27384;DHT22;14851;51.166;4.760;2023-01-23T11:12:32;3.60;99.90
27384;DHT22;14851;51.166;4.760;2023-01-23T11:15:22;3.50;99.90
27384;DHT22;14851;51.166;4.760;2023-01-23T11:17:51;3.50;99.90
27384;DHT22;14851;51.166;4.760;2023-01-23T11:20:24;3.50;99.90
27384;DHT22;14851;51.166;4.760;2023-01-23T11:25:42;3.50;99.90
27384;DHT22;14851;51.166;4.760;2023-01-23T11:28:45;3.60;99.90
27384;DHT22;14851;51.166;4.760;2023-01-23T11:31:18;3.60;99.90
27384;DHT22;14851;51.166;4.760;2023-01-23T11:34:13;3.60;99.90
27384;DHT22;14851;51.166;4.760;2023-01-23T11:42:18;3.70;99.90
27384;DHT22;14851;51.166;4.760;2023-01-23T11:44:46;3.70;99.90
27384;DHT22;14851;51.166;4.760;2023-01-23T11:58:12;3.80;99.90
27384;DHT22;14851;51.166;4.760;2023-01-23T12:06:38;3.90;99.90
27384;DHT22;14851;51.166;4.760;2023-01-23T12:09:20;4.00;99.90
27384;DHT22;14851;51.166;4.760;2023-01-23T12:12:19;4.00;99.90
27384;DHT22;14851;51.166;4.760;2023-01-23T12:15:13;4.00;99.90
27384;DHT22;14851;51.166;4.760;2023-01-23T12:18:39;4.00;99.90
27384;DHT22;14851;51.166;4.760;2023-01-23T12:21:23;4.00;99.90
27384;DHT22;14851;51.166;4.760;2023-01-23T12:35:16;4.10;99.90
27384;DHT22;14851;51.166;4.760;2023-01-23T12:41:12;4.10;99.90
27384;DHT22;14851;51.166;4.760;2023-01-23T12:43:54;4.00;99.90
27384;DHT22;14851;51.166;4.760;2023-01-23T12:49:30;4.00;99.90
27384;DHT22;14851;51.166;4.760;2023-01-23T12:52:04;4.00;99.90
27384;DHT22;14851;51.166;4.760;2023-01-23T12:54:42;4.00;99.90
27384;DHT22;14851;51.166;4.760;2023-01-23T12:57:11;3.90;99.90
27384;DHT22;14851;51.166;4.760;2023-01-23T13:02:43;3.90;99.90
27384;DHT22;14851;51.166;4.760;2023-01-23T13:05:25;3.80;99.90
27384;DHT22;14851;51.166;4.760;2023-01-23T13:08:10;3.80;99.90
27384;DHT22;14851;51.166;4.760;2023-01-23T13:13:33;4.00;99.90
27384;DHT22;14851;51.166;4.760;2023-01-23T13:16:16;4.10;99.90
27384;DHT22;14851;51.166;4.760;2023-01-23T13:18:56;4.10;99.90
27384;DHT22;14851;51.166;4.760;2023-01-23T13:22:01;4.10;99.90
27384;DHT22;14851;51.166;4.760;2023-01-23T13:32:48;4.20;99.90
27384;DHT22;14851;51.166;4.760;2023-01-23T13:43:52;4.20;99.90
27384;DHT22;14851;51.166;4.760;2023-01-23T13:49:16;4.20;99.90
27384;DHT22;14851;51.166;4.760;2023-01-23T13:52:13;4.20;99.90
27384;DHT22;14851;51.166;4.760;2023-01-23T13:55:02;4.20;99.90
27384;DHT22;14851;51.166;4.760;2023-01-23T13:57:47;4.20;99.90
27384;DHT22;14851;51.166;4.760;2023-01-23T14:00:18;4.20;99.90
27384;DHT22;14851;51.166;4.760;2023-01-23T14:06:07;4.10;99.90
27384;DHT22;14851;51.166;4.760;2023-01-23T14:08:43;4.10;99.90
27384;DHT22;14851;51.166;4.760;2023-01-23T14:11:16;4.10;99.90
27384;DHT22;14851;51.166;4.760;2023-01-23T14:13:53;4.10;99.90
27384;DHT22;14851;51.166;4.760;2023-01-23T14:16:49;4.10;99.90
27384;DHT22;14851;51.166;4.760;2023-01-23T14:21:53;4.20;99.90
27384;DHT22;14851;51.166;4.760;2023-01-23T14:24:24;4.30;99.90
27384;DHT22;14851;51.166;4.760;2023-01-23T14:26:58;4.30;99.90
27384;DHT22;14851;51.166;4.760;2023-01-23T14:29:26;4.30;99.90
27384;DHT22;14851;51.166;4.760;2023-01-23T14:31:55;4.30;99.90
27384;DHT22;14851;51.166;4.760;2023-01-23T14:34:23;4.40;99.90
27384;DHT22;14851;51.166;4.760;2023-01-23T14:37:01;4.30;99.90
27384;DHT22;14851;51.166;4.760;2023-01-23T14:39:30;4.30;99.90
27384;DHT22;14851;51.166;4.760;2023-01-23T14:41:58;4.30;99.90
27384;DHT22;14851;51.166;4.760;2023-01-23T14:44:43;4.40;99.90
27384;DHT22;14851;51.166;4.760;2023-01-23T14:47:31;4.30;99.90
27384;DHT22;14851;51.166;4.760;2023-01-23T14:49:58;4.30;99.90
27384;DHT22;14851;51.166;4.760;2023-01-23T14:52:29;4.30;99.90
27384;DHT22;14851;51.166;4.760;2023-01-23T14:54:59;4.30;99.90
27384;DHT22;14851;51.166;4.760;2023-01-23T14:57:28;4.30;99.90
27384;DHT22;14851;51.166;4.760;2023-01-23T14:59:56;4.30;99.90
27384;DHT22;14851;51.166;4.760;2023-01-23T15:05:22;4.20;99.90
27384;DHT22;14851;51.166;4.760;2023-01-23T15:07:57;4.20;99.90
27384;DHT22;14851;51.166;4.760;2023-01-23T15:11:00;4.20;99.90
27384;DHT22;14851;51.166;4.760;2023-01-23T15:13:26;4.20;99.90
27384;DHT22;14851;51.166;4.760;2023-01-23T15:15:56;4.10;99.90
27384;DHT22;14851;51.166;4.760;2023-01-23T15:18:29;4.10;99.90
27384;DHT22;14851;51.166;4.760;2023-01-23T15:21:24;4.10;99.90
27384;DHT22;14851;51.166;4.760;2023-01-23T15:24:14;4.00;99.90
27384;DHT22;14851;51.166;4.760;2023-01-23T15:26:44;3.90;99.90
27384;DHT22;14851;51.166;4.760;2023-01-23T15:39:23;3.80;99.90
27384;DHT22;14851;51.166;4.760;2023-01-23T15:41:54;3.90;99.90
27384;DHT22;14851;51.166;4.760;2023-01-23T15:44:25;3.80;99.90
27384;DHT22;14851;51.166;4.760;2023-01-23T15:46:53;3.80;99.90
27384;DHT22;14851;51.166;4.760;2023-01-23T15:49:20;3.80;99.90
27384;DHT22;14851;51.166;4.760;2023-01-23T15:51:47;3.80;99.90
27384;DHT22;14851;51.166;4.760;2023-01-23T15:54:23;3.80;99.90
27384;DHT22;14851;51.166;4.760;2023-01-23T15:56:53;3.80;99.90
27384;DHT22;14851;51.166;4.760;2023-01-23T15:59:19;3.80;99.90
27384;DHT22;14851;51.166;4.760;2023-01-23T16:01:45;3.70;99.90
27384;DHT22;14851;51.166;4.760;2023-01-23T16:04:12;3.80;99.90
27384;DHT22;14851;51.166;4.760;2023-01-23T16:06:39;3.80;99.90
27384;DHT22;14851;51.166;4.760;2023-01-23T16:09:16;3.70;99.90
27384;DHT22;14851;51.166;4.760;2023-01-23T16:11:54;3.70;99.90
27384;DHT22;14851;51.166;4.760;2023-01-23T16:14:21;3.70;99.90
27384;DHT22;14851;51.166;4.760;2023-01-23T16:16:48;3.70;99.90
27384;DHT22;14851;51.166;4.760;2023-01-23T16:19:14;3.60;99.90
27384;DHT22;14851;51.166;4.760;2023-01-23T16:21:44;3.60;99.90
27384;DHT22;14851;51.166;4.760;2023-01-23T16:24:21;3.60;99.90
27384;DHT22;14851;51.166;4.760;2023-01-23T16:26:50;3.60;99.90
27384;DHT22;14851;51.166;4.760;2023-01-23T16:29:29;3.60;99.90
27384;DHT22;14851;51.166;4.760;2023-01-23T16:31:56;3.50;99.90
27384;DHT22;14851;51.166;4.760;2023-01-23T16:34:24;3.50;99.90
27384;DHT22;14851;51.166;4.760;2023-01-23T16:36:52;3.40;99.90
27384;DHT22;14851;51.166;4.760;2023-01-23T16:39:22;3.50;99.90
27384;DHT22;14851;51.166;4.760;2023-01-23T16:41:49;3.40;99.90
27384;DHT22;14851;51.166;4.760;2023-01-23T16:44:17;3.40;99.90
27384;DHT22;14851;51.166;4.760;2023-01-23T16:46:45;3.40;99.90
27384;DHT22;14851;51.166;4.760;2023-01-23T16:49:12;3.40;99.90
27384;DHT22;14851;51.166;4.760;2023-01-23T16:51:42;3.40;99.90
27384;DHT22;14851;51.166;4.760;2023-01-23T16:54:14;3.40;99.90
27384;DHT22;14851;51.166;4.760;2023-01-23T16:56:42;3.50;99.90
27384;DHT22;14851;51.166;4.760;2023-01-23T16:59:15;3.50;99.90
27384;DHT22;14851;51.166;4.760;2023-01-23T17:01:42;3.50;99.90
27384;DHT22;14851;51.166;4.760;2023-01-23T17:04:14;3.50;99.90
27384;DHT22;14851;51.166;4.760;2023-01-23T17:06:41;3.50;99.90
27384;DHT22;14851;51.166;4.760;2023-01-23T17:09:10;3.50;99.90
27384;DHT22;14851;51.166;4.760;2023-01-23T17:11:46;3.50;99.90
27384;DHT22;14851;51.166;4.760;2023-01-23T17:14:19;3.60;99.90
27384;DHT22;14851;51.166;4.760;2023-01-23T17:16:46;3.60;99.90
27384;DHT22;14851;51.166;4.760;2023-01-23T17:19:28;3.50;99.90
27384;DHT22;14851;51.166;4.760;2023-01-23T17:21:59;3.50;99.90
27384;DHT22;14851;51.166;4.760;2023-01-23T17:24:29;3.50;99.90
27384;DHT22;14851;51.166;4.760;2023-01-23T17:26:56;3.50;99.90
27384;DHT22;14851;51.166;4.760;2023-01-23T17:29:22;3.50;99.90
27384;DHT22;14851;51.166;4.760;2023-01-23T17:31:49;3.50;99.90
27384;DHT22;14851;51.166;4.760;2023-01-23T17:34:24;3.50;99.90
27384;DHT22;14851;51.166;4.760;2023-01-23T17:36:55;3.40;99.90
27384;DHT22;14851;51.166;4.760;2023-01-23T17:39:24;3.40;99.90
27384;DHT22;14851;51.166;4.760;2023-01-23T17:41:51;3.40;99.90
27384;DHT22;14851;51.166;4.760;2023-01-23T17:44:17;3.40;99.90
27384;DHT22;14851;51.166;4.760;2023-01-23T17:46:43;3.40;99.90
27384;DHT22;14851;51.166;4.760;2023-01-23T17:51:55;3.40;99.90
27384;DHT22;14851;51.166;4.760;2023-01-23T17:54:24;3.40;99.90
27384;DHT22;14851;51.166;4.760;2023-01-23T17:56:52;3.40;99.90
27384;DHT22;14851;51.166;4.760;2023-01-23T17:59:19;3.50;99.90
27384;DHT22;14851;51.166;4.760;2023-01-23T18:01:45;3.40;99.90
27384;DHT22;14851;51.166;4.760;2023-01-23T18:04:18;3.40;99.90
27384;DHT22;14851;51.166;4.760;2023-01-23T18:06:45;3.40;99.90
27384;DHT22;14851;51.166;4.760;2023-01-23T18:09:14;3.40;99.90
27384;DHT22;14851;51.166;4.760;2023-01-23T18:11:45;3.40;99.90
27384;DHT22;14851;51.166;4.760;2023-01-23T18:14:29;3.40;99.90